Time;durP1;ratioP1;P1;durP2;ratioP2;P2;SDS_P1;SDS_P2;PMS_P1;PMS_P2;Temp;Humidity;BMP_temperature;BMP_pressure;BME280_temperature;BME280_humidity;BME280_pressure;Samples;Min_cycle;Max_cycle;Signal;HPM_P1;HPM_P2
2022/07/12 00:00:28;;;;;;;10.43;9.47;;;13.90;99.90;;;;;;5099457;28;20461;-66
2022/07/12 00:02:55;;;;;;;9.90;9.40;;;13.90;99.90;;;;;;5101175;27;20488;-66
2022/07/12 00:05:25;;;;;;;10.27;9.77;;;13.80;99.90;;;;;;5099106;28;20483;-66
2022/07/12 00:07:52;;;;;;;12.07;10.97;;;13.80;99.90;;;;;;5100112;28;20545;-65
2022/07/12 00:10:18;;;;;;;21.60;13.17;;;13.80;99.90;;;;;;5090031;28;20450;-66
2022/07/12 00:12:46;;;;;;;11.53;10.63;;;13.80;99.90;;;;;;5093995;28;20477;-66
2022/07/12 00:15:15;;;;;;;10.77;9.90;;;13.90;99.90;;;;;;5100230;28;20465;-66
2022/07/12 00:17:43;;;;;;;10.40;9.60;;;13.90;99.90;;;;;;5100895;28;21030;-66
2022/07/12 00:20:11;;;;;;;10.07;9.47;;;13.80;99.90;;;;;;5099194;28;20482;-66
2022/07/12 00:22:41;;;;;;;10.73;10.13;;;13.70;99.90;;;;;;5098239;28;20454;-66
2022/07/12 00:25:09;;;;;;;12.30;11.20;;;13.60;99.90;;;;;;5101609;28;20862;-66
2022/07/12 00:27:36;;;;;;;11.20;10.60;;;13.60;99.90;;;;;;5099178;28;20501;-66
2022/07/12 00:30:04;;;;;;;10.37;9.33;;;13.50;99.90;;;;;;5099788;28;20462;-65
2022/07/12 00:32:31;;;;;;;10.97;10.03;;;13.40;99.90;;;;;;5099291;27;20482;-66
2022/07/12 00:34:59;;;;;;;11.70;10.87;;;13.40;99.90;;;;;;5098686;28;20470;-65
2022/07/12 00:37:27;;;;;;;10.50;10.00;;;13.40;99.90;;;;;;5094073;28;20787;-66
2022/07/12 00:39:56;;;;;;;11.40;10.50;;;13.30;99.90;;;;;;5092431;28;20461;-65
2022/07/12 00:42:23;;;;;;;12.73;11.83;;;13.30;99.90;;;;;;5092996;28;20459;-66
2022/07/12 00:44:50;;;;;;;12.37;11.47;;;13.40;99.90;;;;;;5094972;28;20454;-66
2022/07/12 00:47:28;;;;;;;12.13;11.10;;;13.30;99.90;;;;;;5092962;28;21451;-65
2022/07/12 00:49:55;;;;;;;11.23;10.57;;;13.30;99.90;;;;;;5094082;28;20466;-67
2022/07/12 00:52:23;;;;;;;11.57;10.77;;;13.20;99.90;;;;;;5093881;28;20457;-66
2022/07/12 00:54:50;;;;;;;11.83;11.23;;;13.10;99.90;;;;;;5097112;28;20453;-65
2022/07/12 00:57:18;;;;;;;12.13;11.30;;;13.10;99.90;;;;;;5090996;28;20461;-66
2022/07/12 00:59:45;;;;;;;11.27;10.67;;;13.00;99.90;;;;;;5089217;28;20462;-68
2022/07/12 01:02:13;;;;;;;11.73;11.10;;;12.90;99.90;;;;;;5098009;28;20461;-66
2022/07/12 01:04:40;;;;;;;11.70;10.93;;;12.90;99.90;;;;;;5094475;28;20453;-65
2022/07/12 01:07:08;;;;;;;12.37;11.40;;;12.90;99.90;;;;;;5091737;28;20461;-66
2022/07/12 01:09:35;;;;;;;12.40;11.67;;;12.90;99.90;;;;;;5095272;28;20956;-65
2022/07/12 01:12:03;;;;;;;12.30;11.23;;;12.80;99.90;;;;;;5091020;28;20450;-66
2022/07/12 01:14:32;;;;;;;11.70;11.10;;;12.80;99.90;;;;;;5088215;28;20462;-66
2022/07/12 01:17:01;;;;;;;12.03;11.43;;;12.60;99.90;;;;;;5092379;28;20470;-66
2022/07/12 01:19:29;;;;;;;13.70;12.43;;;12.60;99.90;;;;;;5094094;28;20477;-66
2022/07/12 01:21:58;;;;;;;12.70;12.00;;;12.60;99.90;;;;;;5092075;28;20960;-66
2022/07/12 01:24:27;;;;;;;12.13;11.53;;;12.70;99.90;;;;;;5101653;28;20467;-66
2022/07/12 01:26:54;;;;;;;12.20;11.60;;;12.70;99.90;;;;;;5088216;28;20500;-66
2022/07/12 01:29:22;;;;;;;12.97;12.17;;;12.70;99.90;;;;;;5101898;28;20958;-67
2022/07/12 01:31:49;;;;;;;13.27;12.37;;;12.70;99.90;;;;;;5092026;28;20513;-67
2022/07/12 01:34:18;;;;;;;13.50;12.80;;;12.70;99.90;;;;;;5094729;28;20463;-66
2022/07/12 01:36:45;;;;;;;12.70;12.00;;;12.70;99.90;;;;;;5091850;28;20462;-65
2022/07/12 01:39:13;;;;;;;13.03;12.10;;;12.60;99.90;;;;;;5095267;28;20467;-66
2022/07/12 01:41:41;;;;;;;12.93;12.10;;;12.50;99.90;;;;;;5095283;28;20465;-66
2022/07/12 01:44:08;;;;;;;13.73;13.03;;;12.50;99.90;;;;;;5092018;28;20629;-67
2022/07/12 01:46:35;;;;;;;13.50;12.80;;;12.40;99.90;;;;;;5096995;28;20489;-67
2022/07/12 01:49:02;;;;;;;13.93;13.07;;;12.40;99.90;;;;;;5092938;28;21083;-67
2022/07/12 01:51:32;;;;;;;13.50;12.50;;;12.40;99.90;;;;;;5100224;28;20822;-65
2022/07/12 01:53:59;;;;;;;13.10;12.50;;;12.40;99.90;;;;;;5088971;28;20454;-66
2022/07/12 01:56:26;;;;;;;13.57;12.87;;;12.30;99.90;;;;;;5096147;28;20480;-66
2022/07/12 01:58:56;;;;;;;14.07;13.20;;;12.30;99.90;;;;;;5095603;28;20468;-67
2022/07/12 02:01:24;;;;;;;13.20;12.50;;;12.20;99.90;;;;;;5093557;28;20468;-66
2022/07/12 02:03:50;;;;;;;13.37;12.47;;;12.20;99.90;;;;;;5100889;28;20474;-65
2022/07/12 02:06:32;;;;;;;13.20;12.43;;;12.20;99.90;;;;;;5087853;28;20490;-67
2022/07/12 02:08:59;;;;;;;13.50;12.80;;;12.20;99.90;;;;;;5094651;28;20450;-67
2022/07/12 02:11:26;;;;;;;14.30;13.50;;;12.10;99.90;;;;;;5094048;28;20458;-68
2022/07/12 02:13:54;;;;;;;14.07;13.27;;;12.10;99.90;;;;;;5096975;28;20629;-66
2022/07/12 02:16:21;;;;;;;15.10;14.20;;;12.10;99.90;;;;;;5090880;28;20462;-65
2022/07/12 02:18:48;;;;;;;14.97;14.17;;;12.10;99.90;;;;;;5091737;28;20768;-67
2022/07/12 02:21:15;;;;;;;13.13;12.47;;;12.10;99.90;;;;;;5093600;28;20809;-66
2022/07/12 02:23:42;;;;;;;13.77;12.93;;;12.00;99.90;;;;;;5088760;28;20458;-66
2022/07/12 02:26:09;;;;;;;14.60;13.33;;;11.90;99.90;;;;;;5092881;28;20478;-67
2022/07/12 02:28:37;;;;;;;14.17;13.20;;;11.90;99.90;;;;;;5091946;28;20462;-67
2022/07/12 02:31:06;;;;;;;14.23;13.33;;;11.90;99.90;;;;;;5094546;28;20457;-67
2022/07/12 02:33:32;;;;;;;13.97;13.20;;;11.90;99.90;;;;;;5101284;28;20487;-66
2022/07/12 02:35:59;;;;;;;14.70;14.00;;;11.90;99.90;;;;;;5102026;28;20489;-66
2022/07/12 02:38:27;;;;;;;13.07;12.30;;;11.90;99.90;;;;;;5099826;28;20476;-67
2022/07/12 02:40:53;;;;;;;14.90;13.90;;;11.90;99.90;;;;;;5097484;28;20461;-66
2022/07/12 02:43:20;;;;;;;14.97;13.97;;;11.90;99.90;;;;;;5100700;27;20461;-66
2022/07/12 02:45:48;;;;;;;14.50;13.70;;;11.80;99.90;;;;;;5100192;28;20496;-66
2022/07/12 02:48:17;;;;;;;15.07;14.17;;;11.80;99.90;;;;;;5097558;28;20478;-65
2022/07/12 02:50:45;;;;;;;14.40;13.23;;;11.70;99.90;;;;;;5099706;28;21201;-66
2022/07/12 02:53:12;;;;;;;14.87;14.00;;;11.70;99.90;;;;;;5094920;28;20466;-67
2022/07/12 02:55:39;;;;;;;14.70;14.00;;;11.80;99.90;;;;;;5096275;28;20477;-67
2022/07/12 02:58:07;;;;;;;15.10;14.30;;;11.70;99.90;;;;;;5099378;28;21032;-68
2022/07/12 03:00:35;;;;;;;15.47;14.67;;;11.70;99.90;;;;;;5094957;28;20515;-67
2022/07/12 03:03:03;;;;;;;14.10;13.40;;;11.70;99.90;;;;;;5101702;28;20467;-67
2022/07/12 03:05:32;;;;;;;15.00;14.10;;;11.70;99.90;;;;;;5092235;28;20470;-66
2022/07/12 03:08:00;;;;;;;14.30;13.50;;;11.70;99.90;;;;;;5095266;28;20458;-66
2022/07/12 03:10:27;;;;;;;15.47;14.27;;;11.60;99.90;;;;;;5096152;28;20480;-66
2022/07/12 03:12:56;;;;;;;14.70;13.93;;;11.60;99.90;;;;;;5097896;28;20454;-66
2022/07/12 03:15:23;;;;;;;15.23;14.10;;;11.50;99.90;;;;;;5098888;28;21032;-66
2022/07/12 03:17:50;;;;;;;14.97;14.17;;;11.50;99.90;;;;;;5102544;28;20464;-67
2022/07/12 03:20:17;;;;;;;14.80;13.60;;;11.50;99.90;;;;;;5104236;28;20459;-66
2022/07/12 03:22:50;;;;;;;15.57;14.57;;;11.50;99.90;;;;;;5094849;28;20469;-67
2022/07/12 03:25:17;;;;;;;15.33;14.30;;;11.50;99.90;;;;;;5102062;28;20493;-66
2022/07/12 03:27:44;;;;;;;14.90;14.00;;;11.50;99.90;;;;;;5104543;28;20497;-66
2022/07/12 03:30:12;;;;;;;14.83;14.03;;;11.40;99.90;;;;;;5097856;28;20565;-66
2022/07/12 03:32:40;;;;;;;15.70;14.43;;;11.40;99.90;;;;;;5100408;28;20481;-66
2022/07/12 03:35:08;;;;;;;14.73;13.93;;;11.40;99.90;;;;;;5099201;28;20462;-66
2022/07/12 03:37:46;;;;;;;14.83;14.03;;;11.40;99.90;;;;;;5100145;28;20458;-67
2022/07/12 03:40:14;;;;;;;15.50;14.70;;;11.50;99.90;;;;;;5089519;28;20458;-66
2022/07/12 03:42:42;;;;;;;16.30;15.10;;;11.50;99.90;;;;;;5094438;28;20465;-66
2022/07/12 03:45:09;;;;;;;16.40;14.90;;;11.50;99.90;;;;;;5096834;28;20450;-67
2022/07/12 03:47:37;;;;;;;15.00;14.20;;;11.50;99.90;;;;;;5099544;28;20485;-66
2022/07/12 03:50:05;;;;;;;16.33;14.80;;;11.50;99.90;;;;;;5093173;28;20456;-66
2022/07/12 03:52:33;;;;;;;16.33;15.23;;;11.50;99.90;;;;;;5093953;28;20449;-67
2022/07/12 03:55:03;;;;;;;17.67;16.00;;;11.50;99.90;;;;;;5094645;28;21032;-67
2022/07/12 03:57:30;;;;;;;16.33;15.30;;;11.50;99.90;;;;;;5088067;28;20454;-66
2022/07/12 03:59:57;;;;;;;15.80;14.80;;;11.50;99.90;;;;;;5094961;28;20470;-66
2022/07/12 04:02:24;;;;;;;14.97;14.00;;;11.60;99.90;;;;;;5083860;28;20488;-65
2022/07/12 04:04:51;;;;;;;16.47;14.90;;;11.60;99.90;;;;;;5069723;28;20462;-68
2022/07/12 04:07:18;;;;;;;15.80;14.70;;;11.60;99.90;;;;;;5067898;28;20492;-69
2022/07/12 04:09:45;;;;;;;15.67;14.60;;;11.60;99.90;;;;;;5069782;28;20557;-66
2022/07/12 04:12:14;;;;;;;15.43;14.30;;;11.60;99.90;;;;;;5066942;28;20465;-67
2022/07/12 04:14:41;;;;;;;15.70;14.80;;;11.60;99.90;;;;;;5068938;28;20466;-66
2022/07/12 04:17:08;;;;;;;15.10;14.30;;;11.60;99.90;;;;;;5067348;28;20460;-66
2022/07/12 04:19:35;;;;;;;16.07;14.67;;;11.70;99.90;;;;;;5070485;28;20473;-67
2022/07/12 04:22:02;;;;;;;15.43;14.50;;;11.70;99.90;;;;;;5068464;28;20469;-66
2022/07/12 04:24:29;;;;;;;15.83;14.40;;;11.70;99.90;;;;;;5070153;28;21122;-66
2022/07/12 04:26:55;;;;;;;14.20;13.20;;;11.70;99.90;;;;;;5025315;28;1226338;-69
2022/07/12 04:29:23;;;;;;;15.43;14.13;;;11.80;99.90;;;;;;5068081;28;20200;-69
2022/07/12 04:31:50;;;;;;;17.03;15.43;;;11.90;99.90;;;;;;5068243;28;20846;-68
2022/07/12 04:34:18;;;;;;;15.10;14.10;;;12.00;99.90;;;;;;5069577;28;20470;-69
2022/07/12 04:36:45;;;;;;;15.50;14.60;;;12.00;99.90;;;;;;5067968;28;20462;-68
2022/07/12 04:39:13;;;;;;;15.67;14.57;;;12.10;99.90;;;;;;5069522;28;20476;-67
2022/07/12 04:41:39;;;;;;;14.80;14.00;;;12.20;99.90;;;;;;5070721;28;20557;-67
2022/07/12 04:44:07;;;;;;;15.33;14.10;;;12.20;99.90;;;;;;5069754;28;20461;-68
2022/07/12 04:46:35;;;;;;;15.70;14.83;;;12.30;99.90;;;;;;5067966;28;20881;-70
2022/07/12 04:49:02;;;;;;;15.90;14.67;;;12.40;99.90;;;;;;5068629;28;20511;-69
2022/07/12 04:51:29;;;;;;;14.77;13.97;;;12.50;99.90;;;;;;5068320;28;20473;-69
2022/07/12 04:53:56;;;;;;;15.47;14.03;;;12.50;99.90;;;;;;5069204;28;20454;-68
2022/07/12 04:56:23;;;;;;;15.53;14.07;;;12.60;99.90;;;;;;5092197;28;20449;-67
2022/07/12 04:58:50;;;;;;;15.30;14.40;;;12.70;99.90;;;;;;5097026;28;20541;-68
2022/07/12 05:01:17;;;;;;;15.60;14.50;;;12.80;99.90;;;;;;5072281;28;20500;-69
2022/07/12 05:03:45;;;;;;;19.57;14.50;;;12.90;99.90;;;;;;5068739;28;20470;-69
2022/07/12 05:06:12;;;;;;;15.83;14.63;;;13.00;99.90;;;;;;5068745;28;20929;-68
2022/07/12 05:08:39;;;;;;;15.87;14.67;;;13.10;99.90;;;;;;5066706;28;20458;-68
2022/07/12 05:11:06;;;;;;;16.70;15.13;;;13.30;99.90;;;;;;5067381;28;22637;-69
2022/07/12 05:13:33;;;;;;;18.80;15.60;;;13.30;99.90;;;;;;5068021;28;21208;-68
2022/07/12 05:16:00;;;;;;;19.40;14.13;;;13.50;99.90;;;;;;5067046;28;20469;-68
2022/07/12 05:18:27;;;;;;;15.00;13.97;;;13.60;99.90;;;;;;5068252;28;20845;-68
2022/07/12 05:20:55;;;;;;;16.30;14.60;;;13.70;99.90;;;;;;5070079;28;21378;-68
2022/07/12 05:23:22;;;;;;;19.40;15.10;;;13.80;99.90;;;;;;5067092;28;20973;-67
2022/07/12 05:25:49;;;;;;;16.57;14.90;;;13.90;99.90;;;;;;5067573;28;21323;-67
2022/07/12 05:28:16;;;;;;;14.47;13.27;;;14.00;99.90;;;;;;5068820;28;20536;-67
2022/07/12 05:30:43;;;;;;;17.83;14.17;;;14.20;99.90;;;;;;5065953;28;20458;-67
2022/07/12 05:33:11;;;;;;;24.70;13.90;;;14.30;99.90;;;;;;5065403;28;20576;-69
2022/07/12 05:35:38;;;;;;;17.87;15.60;;;14.50;99.90;;;;;;5064773;28;20462;-66
2022/07/12 05:38:06;;;;;;;22.90;16.03;;;14.70;99.90;;;;;;5065417;28;21042;-67
2022/07/12 05:40:33;;;;;;;43.87;15.90;;;14.90;99.90;;;;;;5065644;28;20853;-66
2022/07/12 05:43:00;;;;;;;35.50;15.70;;;15.20;99.90;;;;;;5067244;28;20457;-69
2022/07/12 05:45:27;;;;;;;20.37;12.73;;;15.40;99.90;;;;;;5066655;28;20795;-68
2022/07/12 05:47:54;;;;;;;23.60;14.70;;;15.50;99.90;;;;;;5066790;28;20962;-67
2022/07/12 05:50:21;;;;;;;23.00;14.27;;;15.60;99.90;;;;;;5066840;28;20462;-67
2022/07/12 05:55:33;;;;;;;23.00;16.40;;;15.80;99.90;;;;;;5068724;28;20465;-66
2022/07/12 05:58:00;;;;;;;35.13;15.80;;;16.00;99.90;;;;;;5066045;28;20472;-68
2022/07/12 06:00:27;;;;;;;36.20;16.10;;;16.10;99.90;;;;;;5085344;28;20465;-67
2022/07/12 06:02:55;;;;;;;34.13;16.93;;;16.30;99.90;;;;;;5065926;28;20478;-67
2022/07/12 06:05:22;;;;;;;25.83;16.23;;;16.40;99.90;;;;;;5066878;28;20528;-67
2022/07/12 06:07:49;;;;;;;31.90;16.20;;;16.60;99.90;;;;;;5064226;28;20852;-66
2022/07/12 06:10:16;;;;;;;30.80;15.97;;;16.70;99.90;;;;;;5064550;28;20462;-68
2022/07/12 06:12:45;;;;;;;25.57;15.60;;;16.90;99.90;;;;;;5067993;28;20482;-68
2022/07/12 06:15:13;;;;;;;31.67;17.57;;;17.00;99.90;;;;;;5067642;28;20465;-67
2022/07/12 06:17:40;;;;;;;38.83;19.50;;;17.10;99.90;;;;;;5068060;28;20470;-67
2022/07/12 06:20:08;;;;;;;29.60;15.57;;;17.30;99.90;;;;;;5067841;28;20465;-68
2022/07/12 06:22:35;;;;;;;26.33;16.43;;;17.50;99.90;;;;;;5067248;28;20458;-67
2022/07/12 06:25:01;;;;;;;33.33;15.43;;;17.70;99.90;;;;;;5067064;28;20559;-68
2022/07/12 06:27:29;;;;;;;22.47;15.40;;;17.80;99.90;;;;;;5067711;28;20509;-69
2022/07/12 06:29:57;;;;;;;33.80;15.33;;;18.00;99.90;;;;;;5066346;28;20461;-67
2022/07/12 06:32:23;;;;;;;26.03;14.40;;;18.30;99.90;;;;;;5067356;28;20571;-69
2022/07/12 06:34:50;;;;;;;26.83;16.23;;;18.40;99.90;;;;;;5067617;28;20465;-66
2022/07/12 06:37:17;;;;;;;29.57;15.97;;;18.50;99.90;;;;;;5066933;28;20478;-67
2022/07/12 06:39:46;;;;;;;22.47;15.47;;;18.60;99.90;;;;;;5067071;28;21492;-66
2022/07/12 06:42:13;;;;;;;26.53;17.47;;;18.70;99.90;;;;;;5066988;28;20984;-65
2022/07/12 06:44:40;;;;;;;29.60;16.20;;;18.90;99.90;;;;;;5065485;28;20504;-66
2022/07/12 06:47:08;;;;;;;19.17;14.70;;;19.10;99.90;;;;;;5066162;28;20489;-66
2022/07/12 06:49:35;;;;;;;28.13;15.93;;;19.30;99.90;;;;;;5066938;28;20477;-65
2022/07/12 06:52:02;;;;;;;30.50;16.97;;;19.50;99.90;;;;;;5066203;28;20509;-66
2022/07/12 06:54:29;;;;;;;35.43;17.87;;;19.70;99.90;;;;;;5066657;28;20466;-67
2022/07/12 06:56:55;;;;;;;26.07;16.57;;;19.90;99.90;;;;;;5066911;28;20568;-65
2022/07/12 06:59:22;;;;;;;18.30;16.40;;;20.10;99.90;;;;;;5066550;28;20470;-67
2022/07/12 07:01:50;;;;;;;26.43;19.00;;;20.20;99.90;;;;;;5066954;28;21260;-66
2022/07/12 07:04:18;;;;;;;23.47;16.87;;;20.40;99.90;;;;;;5065412;28;20458;-67
2022/07/12 07:06:46;;;;;;;26.20;17.93;;;20.60;99.90;;;;;;5087196;28;20461;-66
2022/07/12 07:09:14;;;;;;;19.07;17.03;;;20.90;99.90;;;;;;5087108;28;21019;-66
2022/07/12 07:11:41;;;;;;;26.03;17.60;;;21.20;99.90;;;;;;5088848;28;20457;-66
2022/07/12 07:14:08;;;;;;;19.83;16.27;;;21.40;99.90;;;;;;5092774;28;20835;-66
2022/07/12 07:16:36;;;;;;;19.53;17.63;;;21.50;99.90;;;;;;5091579;28;20462;-66
2022/07/12 07:19:05;;;;;;;19.10;16.10;;;21.70;99.90;;;;;;5094639;28;20563;-66
2022/07/12 07:21:33;;;;;;;19.97;18.03;;;22.00;99.90;;;;;;5094224;28;20810;-65
2022/07/12 07:24:00;;;;;;;20.57;18.07;;;22.30;99.90;;;;;;5070150;28;22457;-66
2022/07/12 07:26:27;;;;;;;22.10;17.40;;;22.50;99.90;;;;;;5068718;28;20887;-66
2022/07/12 07:31:39;;;;;;;27.70;17.73;;;22.80;99.90;;;;;;5071414;28;20544;-67
2022/07/12 07:34:07;;;;;;;20.30;18.00;;;23.10;99.90;;;;;;5070293;28;20474;-66
2022/07/12 07:36:35;;;;;;;23.17;18.07;;;23.30;99.90;;;;;;5069318;28;20460;-67
2022/07/12 07:39:02;;;;;;;20.23;18.60;;;23.20;99.90;;;;;;5070552;28;20477;-67
2022/07/12 07:41:29;;;;;;;21.97;19.00;;;23.30;99.90;;;;;;5070757;28;20462;-67
2022/07/12 07:43:56;;;;;;;27.67;18.70;;;23.40;99.90;;;;;;5069386;28;20534;-67
2022/07/12 07:46:23;;;;;;;37.43;19.30;;;23.30;99.90;;;;;;5069734;28;20458;-67
2022/07/12 07:48:50;;;;;;;19.17;17.80;;;23.20;99.90;;;;;;5070007;28;20754;-67
2022/07/12 07:51:17;;;;;;;19.20;17.73;;;23.20;99.90;;;;;;5069257;28;20474;-67
2022/07/12 07:53:46;;;;;;;18.97;17.40;;;23.30;99.90;;;;;;5069280;28;20640;-67
2022/07/12 07:56:13;;;;;;;19.90;18.20;;;23.40;99.90;;;;;;5069958;28;20462;-68
2022/07/12 07:58:39;;;;;;;19.80;17.70;;;23.40;99.90;;;;;;5069766;28;21406;-67
2022/07/12 08:01:07;;;;;;;26.90;18.20;;;23.40;99.90;;;;;;5069530;28;20469;-68
2022/07/12 08:03:34;;;;;;;18.93;17.00;;;23.50;99.90;;;;;;5068654;28;20839;-67
2022/07/12 08:06:01;;;;;;;18.67;16.97;;;23.50;99.90;;;;;;5069190;28;21091;-67
2022/07/12 08:08:30;;;;;;;19.20;17.90;;;23.60;99.90;;;;;;5068001;28;20481;-67
2022/07/12 08:10:59;;;;;;;18.93;17.57;;;23.50;99.90;;;;;;5069407;28;20473;-67
2022/07/12 08:13:26;;;;;;;19.83;18.20;;;23.80;99.90;;;;;;5068823;28;20508;-68
2022/07/12 08:15:53;;;;;;;19.80;18.30;;;24.00;99.90;;;;;;5069107;28;20461;-69
2022/07/12 08:18:21;;;;;;;19.80;18.50;;;24.40;99.90;;;;;;5068954;28;20458;-68
2022/07/12 08:20:48;;;;;;;21.70;19.37;;;24.90;99.90;;;;;;5069048;28;21076;-67
2022/07/12 08:23:15;;;;;;;22.60;20.40;;;25.60;99.90;;;;;;5069083;28;20782;-68
2022/07/12 08:25:42;;;;;;;21.07;19.47;;;26.20;99.90;;;;;;5069859;28;20697;-67
2022/07/12 08:28:10;;;;;;;21.53;19.60;;;27.10;99.90;;;;;;5068658;28;20494;-68
2022/07/12 08:30:37;;;;;;;21.07;19.57;;;28.10;99.90;;;;;;5068238;28;20953;-68
2022/07/12 08:33:04;;;;;;;21.30;19.13;;;28.00;99.90;;;;;;5068564;28;20478;-68
2022/07/12 08:35:31;;;;;;;19.73;18.10;;;28.60;99.90;;;;;;5068232;28;20472;-68
2022/07/12 08:37:59;;;;;;;19.53;18.10;;;29.40;99.90;;;;;;5069143;28;20556;-68
2022/07/12 08:40:25;;;;;;;18.50;17.33;;;30.20;97.80;;;;;;5068831;28;20910;-68
2022/07/12 08:42:52;;;;;;;19.97;18.43;;;30.50;96.00;;;;;;5069049;28;20466;-67
2022/07/12 08:45:20;;;;;;;17.87;16.70;;;31.10;94.10;;;;;;5068163;28;20466;-68
2022/07/12 08:47:47;;;;;;;18.40;17.40;;;31.60;91.70;;;;;;5070121;28;20866;-69
2022/07/12 08:50:16;;;;;;;19.47;18.17;;;32.10;91.00;;;;;;5069151;28;20465;-68
2022/07/12 08:52:45;;;;;;;19.20;18.00;;;32.00;89.40;;;;;;5068959;28;20541;-68
2022/07/12 08:55:21;;;;;;;20.20;18.63;;;31.60;87.80;;;;;;5068474;28;20462;-68
2022/07/12 08:57:49;;;;;;;18.73;17.43;;;31.50;86.80;;;;;;5068509;28;20518;-67
2022/07/12 09:00:16;;;;;;;19.80;18.40;;;31.10;86.70;;;;;;5066628;28;21002;-68
2022/07/12 09:02:52;;;;;;;19.17;18.17;;;31.40;87.00;;;;;;5074822;28;20470;-67
2022/07/12 09:05:21;;;;;;;18.73;17.43;;;31.60;83.00;;;;;;5092694;28;20452;-68
2022/07/12 09:07:48;;;;;;;19.07;17.57;;;32.10;82.60;;;;;;5073575;28;20705;-69
2022/07/12 09:10:16;;;;;;;19.17;17.80;;;32.20;78.70;;;;;;5067764;28;21041;-68
2022/07/12 09:12:44;;;;;;;18.00;16.90;;;32.00;81.40;;;;;;5068626;28;20915;-68
2022/07/12 09:15:19;;;;;;;18.53;17.13;;;31.70;78.70;;;;;;5067380;28;20471;-68
2022/07/12 09:17:58;;;;;;;18.40;17.40;;;32.20;78.40;;;;;;5068647;28;20461;-68
2022/07/12 09:20:26;;;;;;;18.73;17.30;;;31.40;78.90;;;;;;5068740;28;20446;-68
2022/07/12 09:22:55;;;;;;;24.50;18.13;;;31.70;76.60;;;;;;5068229;28;20715;-68
2022/07/12 09:25:22;;;;;;;18.10;17.20;;;31.90;75.70;;;;;;5068285;28;20458;-69
2022/07/12 09:27:54;;;;;;;18.20;16.77;;;31.80;78.20;;;;;;5068208;28;20850;-68
2022/07/12 09:30:23;;;;;;;18.13;17.00;;;32.00;75.10;;;;;;5068011;28;20972;-69
2022/07/12 09:36:07;;;;;;;19.07;17.53;;;33.40;71.10;;;;;;5068127;28;20498;-69
2022/07/12 09:38:35;;;;;;;18.67;17.03;;;33.40;68.30;;;;;;5068547;28;20477;-68
2022/07/12 09:41:02;;;;;;;18.23;17.10;;;34.10;68.30;;;;;;5067181;28;20460;-69
2022/07/12 09:43:29;;;;;;;17.43;16.30;;;33.90;65.50;;;;;;5067796;28;20482;-68
2022/07/12 09:45:57;;;;;;;17.30;16.30;;;33.20;68.20;;;;;;5068147;28;20453;-67
2022/07/12 09:48:27;;;;;;;17.83;16.30;;;34.70;64.90;;;;;;5068407;28;20544;-68
2022/07/12 09:50:54;;;;;;;17.23;16.23;;;34.20;59.60;;;;;;5067427;28;21209;-69
2022/07/12 09:53:23;;;;;;;17.33;16.13;;;33.60;60.30;;;;;;5067652;28;20468;-68
2022/07/12 09:55:54;;;;;;;17.33;16.17;;;33.90;59.60;;;;;;5067707;28;20519;-69
2022/07/12 09:58:26;;;;;;;18.23;16.97;;;33.80;59.40;;;;;;5068150;28;20552;-68
2022/07/12 10:00:54;;;;;;;17.73;16.70;;;33.20;59.90;;;;;;5067686;28;20476;-68
2022/07/12 10:03:23;;;;;;;17.20;16.20;;;33.20;59.90;;;;;;5067402;28;20778;-69
2022/07/12 10:05:54;;;;;;;18.17;16.67;;;33.50;59.90;;;;;;5067072;28;20460;-68
2022/07/12 10:08:22;;;;;;;18.10;16.80;;;33.90;58.50;;;;;;5066994;28;20486;-69
2022/07/12 10:10:50;;;;;;;17.17;16.27;;;34.50;58.90;;;;;;5068209;28;21990;-69
2022/07/12 10:13:19;;;;;;;17.90;16.80;;;34.10;56.70;;;;;;5067271;28;20458;-68
2022/07/12 10:15:48;;;;;;;17.57;16.60;;;34.20;57.10;;;;;;5067574;28;20688;-69
2022/07/12 10:18:19;;;;;;;17.40;16.50;;;34.30;57.00;;;;;;5067787;28;20994;-69
2022/07/12 10:20:47;;;;;;;17.87;16.57;;;34.80;55.30;;;;;;5067865;28;20469;-68
2022/07/12 10:23:35;;;;;;;17.83;16.73;;;34.30;55.20;;;;;;5067724;28;20813;-69
2022/07/12 10:26:27;;;;;;;17.63;16.40;;;33.70;56.70;;;;;;5066857;28;20462;-68
2022/07/12 10:29:03;;;;;;;17.27;16.47;;;33.90;57.00;;;;;;5058994;28;20493;-69
2022/07/12 10:31:33;;;;;;;19.27;17.30;;;34.60;55.00;;;;;;5066377;28;20464;-68
2022/07/12 10:34:09;;;;;;;18.10;16.93;;;34.90;55.00;;;;;;5066842;28;20458;-69
2022/07/12 10:37:13;;;;;;;17.40;16.30;;;35.10;54.40;;;;;;5067670;28;20485;-69
2022/07/12 10:39:41;;;;;;;16.70;15.80;;;35.70;54.80;;;;;;5067793;28;20929;-68
2022/07/12 10:42:16;;;;;;;16.80;15.90;;;36.40;53.20;;;;;;5066627;28;20999;-68
2022/07/12 10:44:46;;;;;;;17.60;15.93;;;37.00;49.30;;;;;;5066948;28;20461;-69
2022/07/12 10:47:16;;;;;;;17.30;16.30;;;36.30;49.20;;;;;;5067746;28;20466;-68
2022/07/12 10:49:50;;;;;;;17.50;16.40;;;35.80;49.90;;;;;;5067378;28;21026;-69
2022/07/12 10:52:24;;;;;;;17.40;16.40;;;35.50;50.40;;;;;;5066338;28;20449;-69
2022/07/12 10:55:22;;;;;;;18.30;17.03;;;35.80;50.30;;;;;;5069890;28;20491;-69
2022/07/12 10:57:54;;;;;;;17.20;16.30;;;35.20;48.70;;;;;;5007811;28;21569;-70
2022/07/12 11:00:22;;;;;;;16.20;15.50;;;35.00;51.30;;;;;;5057685;28;20468;-69
2022/07/12 11:02:49;;;;;;;17.00;15.70;;;35.70;47.90;;;;;;5070874;28;20514;-69
2022/07/12 11:05:16;;;;;;;16.47;15.47;;;36.20;47.60;;;;;;5070708;28;20474;-69
2022/07/12 11:07:43;;;;;;;17.03;15.77;;;36.60;47.60;;;;;;5070286;28;20461;-70
2022/07/12 11:10:13;;;;;;;17.33;16.27;;;37.50;46.30;;;;;;5070560;28;21374;-69
2022/07/12 11:12:40;;;;;;;18.33;16.60;;;36.60;46.10;;;;;;5071295;28;20458;-69
2022/07/12 11:15:09;;;;;;;16.83;15.87;;;35.00;46.30;;;;;;5071808;28;21027;-69
2022/07/12 11:17:36;;;;;;;18.67;16.20;;;34.90;47.80;;;;;;5071080;28;20465;-69
2022/07/12 11:20:06;;;;;;;16.70;15.60;;;35.90;46.40;;;;;;5070519;28;20473;-69
2022/07/12 11:22:33;;;;;;;17.83;15.70;;;36.40;45.90;;;;;;5071496;28;20462;-69
2022/07/12 11:25:00;;;;;;;16.87;15.47;;;37.60;45.30;;;;;;5070849;28;20460;-68
2022/07/12 11:27:28;;;;;;;16.53;15.60;;;37.60;43.40;;;;;;5070487;28;20490;-70
2022/07/12 11:29:59;;;;;;;16.77;15.63;;;37.90;42.90;;;;;;5069354;28;20508;-69
2022/07/12 11:32:40;;;;;;;17.43;15.90;;;37.80;42.50;;;;;;5070825;28;20531;-68
2022/07/12 11:35:19;;;;;;;16.20;15.07;;;37.60;41.50;;;;;;5070601;28;21283;-69
2022/07/12 11:37:52;;;;;;;17.10;15.67;;;37.60;42.70;;;;;;5071271;28;20555;-70
2022/07/12 11:40:23;;;;;;;16.30;15.27;;;37.30;43.00;;;;;;5069707;28;20485;-69
2022/07/12 11:42:55;;;;;;;17.23;15.80;;;37.60;42.30;;;;;;5070257;28;20465;-69
2022/07/12 11:45:22;;;;;;;16.00;14.97;;;37.20;41.80;;;;;;5070550;28;21121;-69
2022/07/12 11:47:50;;;;;;;16.53;15.27;;;37.40;41.70;;;;;;5070668;28;20455;-69
2022/07/12 11:50:19;;;;;;;15.93;14.90;;;37.50;41.70;;;;;;5070338;28;20950;-70
2022/07/12 11:52:46;;;;;;;17.23;16.03;;;38.20;40.70;;;;;;5070169;28;20470;-69
2022/07/12 11:55:13;;;;;;;16.77;15.60;;;38.50;39.60;;;;;;5070445;27;20469;-70
2022/07/12 11:57:40;;;;;;;16.07;15.03;;;38.10;39.20;;;;;;5070024;28;20472;-68
2022/07/12 12:00:17;;;;;;;15.90;14.70;;;38.50;39.90;;;;;;5069072;28;20902;-70
2022/07/12 12:02:45;;;;;;;16.20;15.20;;;38.90;38.30;;;;;;5070380;28;20469;-70
2022/07/12 12:05:13;;;;;;;22.67;20.53;;;39.30;37.70;;;;;;5069851;28;20473;-70
2022/07/12 12:07:40;;;;;;;16.10;15.03;;;39.40;37.60;;;;;;5068955;28;20555;-68
2022/07/12 12:10:11;;;;;;;17.67;16.10;;;38.30;38.10;;;;;;5069081;28;20991;-70
2022/07/12 12:12:44;;;;;;;16.03;15.23;;;37.60;38.70;;;;;;5069646;28;20606;-69
2022/07/12 12:15:12;;;;;;;16.87;15.50;;;38.40;38.50;;;;;;5068713;28;20466;-69
2022/07/12 12:17:45;;;;;;;15.47;14.57;;;37.70;38.70;;;;;;5069145;28;21085;-70
2022/07/12 12:20:17;;;;;;;17.30;15.87;;;37.90;40.60;;;;;;5070244;28;20489;-69
2022/07/12 12:22:45;;;;;;;16.50;15.40;;;38.60;39.30;;;;;;5068323;28;20481;-69
2022/07/12 12:25:15;;;;;;;16.33;15.43;;;39.40;37.90;;;;;;5068514;28;20457;-69
2022/07/12 12:27:46;;;;;;;15.90;15.10;;;39.40;37.90;;;;;;5067334;28;21602;-69
2022/07/12 12:30:14;;;;;;;16.27;15.27;;;38.20;37.00;;;;;;5067552;28;20541;-69
2022/07/12 12:32:49;;;;;;;16.13;15.37;;;37.60;38.20;;;;;;5067549;28;20529;-69
2022/07/12 12:35:19;;;;;;;16.87;15.80;;;37.30;38.90;;;;;;5068067;28;20471;-69
2022/07/12 12:37:57;;;;;;;17.63;15.97;;;37.20;39.40;;;;;;5067770;28;20461;-69
2022/07/12 12:40:25;;;;;;;19.03;15.73;;;37.90;38.40;;;;;;5067532;28;20609;-69
2022/07/12 12:42:53;;;;;;;16.10;14.97;;;38.20;37.60;;;;;;5066942;28;20941;-69